This is the latest recevied weather packets stored in our database for station/object OK2ILA-10. If no packets are shown the sender has not sent any weather packets the latest 10 day(s).
| Time | Temp. | Humidity | Pressure | Rain* | Wind** | Luminosity | Snow |
|---|---|---|---|---|---|---|---|
| 1777958197 | 17.22° C | 45% | 1012 hPa | - | - | - | - |
| 1777957603 | 17.22° C | 45% | 1011.8 hPa | - | - | - | - |
| 1777957597 | 17.22° C | 45% | 1011.8 hPa | - | - | - | - |
| 1777957003 | 17.22° C | 45% | 1012 hPa | - | - | - | - |
| 1777956997 | 17.22° C | 45% | 1012 hPa | - | - | - | - |
| 1777956403 | 16.67° C | 45% | 1011.9 hPa | - | - | - | - |
| 1777956396 | 16.67° C | 45% | 1011.9 hPa | - | - | - | - |
| 1777955803 | 16.67° C | 44% | 1011.9 hPa | - | - | - | - |
| 1777955795 | 16.67° C | 44% | 1011.9 hPa | - | - | - | - |
| 1777955199 | 17.78° C | 43% | 1011.9 hPa | - | - | - | - |
| 1777955195 | 17.78° C | 43% | 1011.9 hPa | - | - | - | - |
| 1777954599 | 19.44° C | 41% | 1011.9 hPa | - | - | - | - |
| 1777954595 | 19.44° C | 41% | 1011.9 hPa | - | - | - | - |
| 1777953999 | 18.89° C | 41% | 1012 hPa | - | - | - | - |
| 1777953995 | 18.89° C | 41% | 1012 hPa | - | - | - | - |
| 1777953398 | 17.78° C | 43% | 1012 hPa | - | - | - | - |
| 1777953395 | 17.78° C | 43% | 1012 hPa | - | - | - | - |
| 1777952798 | 15° C | 47% | 1012.1 hPa | - | - | - | - |
| 1777952794 | 15° C | 47% | 1012.1 hPa | - | - | - | - |
| 1777952198 | 14.44° C | 47% | 1012.1 hPa | - | - | - | - |
| 1777952194 | 14.44° C | 47% | 1012.1 hPa | - | - | - | - |
| 1777951598 | 13.89° C | 48% | 1012.2 hPa | - | - | - | - |
| 1777951594 | 13.89° C | 48% | 1012.2 hPa | - | - | - | - |
| 1777950997 | 13.89° C | 48% | 1012.2 hPa | - | - | - | - |
| 1777950994 | 13.89° C | 48% | 1012.2 hPa | - | - | - | - |
* Rain since midnight (hover to see other rain measurements)
** Current wind speed in m/s (hover to see current wind gust speed)